createdAt,value
2022-12-24T05:17:39.280Z,69.09
2022-12-24T05:20:06.899Z,69.36
2022-12-24T05:22:52.209Z,69.66
2022-12-24T05:25:40.853Z,69.68
2022-12-24T05:28:07.464Z,69.65
2022-12-24T05:30:34.214Z,71.55
2022-12-24T05:33:00.844Z,72.37
2022-12-24T05:35:27.458Z,72.48
2022-12-24T05:37:58.116Z,72.63
2022-12-24T05:40:24.740Z,72.21
2022-12-24T05:42:51.367Z,72.79
2022-12-24T05:45:17.880Z,71.64
2022-12-24T05:47:44.297Z,71.50
2022-12-24T05:50:11.201Z,72.63
2022-12-24T05:52:37.679Z,73.29
2022-12-24T05:55:04.770Z,73.12
2022-12-24T05:57:31.324Z,73.11
2022-12-24T05:59:57.741Z,72.57
2022-12-24T06:02:24.244Z,71.45
2022-12-24T06:04:50.738Z,72.62
2022-12-24T06:07:17.437Z,73.21
2022-12-24T06:09:46.971Z,72.12
2022-12-24T06:12:23.744Z,72.12
2022-12-24T06:15:17.449Z,72.43
2022-12-24T06:17:47.034Z,72.54
2022-12-24T06:20:14.884Z,71.32
2022-12-24T06:22:48.616Z,71.91
2022-12-24T06:25:23.141Z,71.27
2022-12-24T06:27:49.956Z,71.89
2022-12-24T06:30:18.598Z,71.42
2022-12-24T06:32:45.284Z,71.75
2022-12-24T06:35:12.352Z,70.46
2022-12-24T06:37:47.932Z,71.09
2022-12-24T06:40:14.897Z,71.39
2022-12-24T06:42:41.555Z,71.71
2022-12-24T06:45:09.932Z,70.94
2022-12-24T06:47:37.332Z,71.88
2022-12-24T06:50:04.500Z,72.07
2022-12-24T06:52:31.299Z,71.74
2022-12-24T06:54:58.087Z,71.54
2022-12-24T06:57:46.212Z,71.99
2022-12-24T07:00:22.872Z,71.45
2022-12-24T07:02:54.923Z,71.01
2022-12-24T07:05:34.284Z,71.29
2022-12-24T07:11:21.513Z,70.26
2022-12-24T07:13:58.135Z,71.22
2022-12-24T07:16:33.530Z,71.21
2022-12-24T07:19:06.085Z,69.11
2022-12-24T07:21:36.871Z,69.28
2022-12-24T07:24:11.824Z,69.35
2022-12-24T07:26:41.972Z,69.27
2022-12-24T07:29:08.963Z,69.62
2022-12-24T07:31:38.513Z,69.60
2022-12-24T07:34:05.675Z,69.30
2022-12-24T07:36:32.788Z,71.40
2022-12-24T07:39:01.801Z,71.73
2022-12-24T07:41:28.873Z,72.50
2022-12-24T07:43:58.822Z,73.90
2022-12-24T07:46:27.212Z,73.27
2022-12-24T07:48:54.004Z,73.05
2022-12-24T07:51:20.702Z,71.86
2022-12-24T07:53:48.011Z,71.04
2022-12-24T07:56:15.598Z,70.78
2022-12-24T07:58:42.704Z,71.65
2022-12-24T08:01:10.242Z,70.44
2022-12-24T08:03:36.839Z,70.07
2022-12-24T08:06:03.527Z,69.28
2022-12-24T08:08:30.136Z,68.83
2022-12-24T08:11:02.765Z,69.18
2022-12-24T08:13:29.907Z,69.57
2022-12-24T08:15:57.028Z,69.75
2022-12-24T08:18:24.185Z,69.35
2022-12-24T08:20:51.512Z,69.29
2022-12-24T08:23:18.898Z,69.98
2022-12-24T08:25:48.408Z,69.78
2022-12-24T08:28:22.302Z,70.72
2022-12-24T08:30:53.387Z,71.56
2022-12-24T08:33:32.017Z,72.86
2022-12-24T08:36:03.984Z,73.65
2022-12-24T08:39:19.394Z,75.45
2022-12-24T08:45:56.363Z,77.44
2022-12-24T08:52:57.139Z,77.15
2022-12-24T08:55:28.287Z,77.54
2022-12-24T09:01:59.679Z,76.92
2022-12-24T09:04:53.501Z,77.99
2022-12-24T09:07:35.543Z,78.11
2022-12-24T09:10:20.369Z,77.35
2022-12-24T09:13:26.438Z,76.67
2022-12-24T09:16:12.863Z,76.51
2022-12-24T09:19:03.879Z,77.12
2022-12-24T09:21:55.535Z,76.92
2022-12-24T09:27:35.148Z,78.87
2022-12-24T09:30:07.695Z,78.93
2022-12-24T09:32:49.555Z,79.32
2022-12-24T09:38:12.231Z,77.11
2022-12-24T09:40:45.708Z,78.29
2022-12-24T09:43:22.183Z,78.54
2022-12-24T09:49:47.839Z,76.66
2022-12-24T09:52:27.724Z,76.54
2022-12-24T09:55:33.712Z,77.45
2022-12-24T09:58:10.647Z,76.25
2022-12-24T10:01:06.970Z,76.93
2022-12-24T10:03:33.765Z,78.06
2022-12-24T10:06:07.621Z,77.92
2022-12-24T10:08:39.036Z,77.39
2022-12-24T10:12:01.507Z,78.33
2022-12-24T10:15:03.123Z,78.73
2022-12-24T10:18:36.084Z,79.74
2022-12-24T10:25:37.910Z,79.48
2022-12-24T10:28:13.783Z,78.86
2022-12-24T10:30:41.778Z,78.67
2022-12-24T10:33:31.315Z,79.10
2022-12-24T10:36:54.366Z,78.85
2022-12-24T10:40:02.771Z,77.90
2022-12-24T10:42:50.677Z,77.25
2022-12-24T10:45:30.165Z,77.47
2022-12-24T10:48:04.981Z,77.22
2022-12-24T10:50:35.842Z,78.72
2022-12-24T10:53:43.659Z,78.30
2022-12-24T10:56:41.341Z,77.92
2022-12-24T10:59:29.057Z,79.01
2022-12-24T11:02:02.395Z,78.35
2022-12-24T11:04:36.155Z,77.92
2022-12-24T11:07:19.496Z,77.64
2022-12-24T11:09:56.688Z,77.79
2022-12-24T11:12:27.500Z,77.02
2022-12-24T11:15:17.204Z,77.22
2022-12-24T11:18:04.875Z,76.08
2022-12-24T11:20:34.360Z,75.85
2022-12-24T11:23:02.403Z,75.46
2022-12-24T11:25:38.705Z,74.49
2022-12-24T11:28:19.848Z,74.06
2022-12-24T11:31:20.027Z,73.34
2022-12-24T11:33:50.370Z,74.31
2022-12-24T11:36:21.920Z,72.88
2022-12-24T11:38:59.068Z,72.53
2022-12-24T11:41:26.602Z,71.35
2022-12-24T11:44:03.732Z,72.01
2022-12-24T11:46:54.446Z,71.04
2022-12-24T11:49:32.052Z,73.35
2022-12-24T11:52:10.841Z,72.19
2022-12-24T11:55:16.524Z,71.40
2022-12-24T11:58:21.977Z,72.12
2022-12-24T12:01:15.818Z,71.46
2022-12-24T12:03:51.178Z,72.04
2022-12-24T12:06:40.512Z,71.69
2022-12-24T12:09:23.651Z,70.86
2022-12-24T12:11:58.756Z,70.03
2022-12-24T12:14:41.715Z,69.75
2022-12-24T12:17:47.739Z,69.66
2022-12-24T12:20:26.793Z,68.32
2022-12-24T12:23:02.596Z,67.73
2022-12-24T12:25:35.132Z,69.03
2022-12-24T12:28:06.279Z,68.83
2022-12-24T12:30:35.737Z,69.04
2022-12-24T12:33:19.359Z,64.69
2022-12-24T12:35:48.627Z,57.54
2022-12-24T12:38:24.863Z,53.57
2022-12-24T12:41:29.150Z,54.04
2022-12-24T12:44:27.806Z,54.49
2022-12-24T12:47:28.381Z,57.01
2022-12-24T12:50:23.152Z,59.94
2022-12-24T12:52:59.045Z,55.21
2022-12-24T12:55:38.025Z,56.87
2022-12-24T12:58:12.938Z,58.24
2022-12-24T13:01:16.614Z,62.12
2022-12-24T13:04:08.160Z,64.01
2022-12-24T13:07:17.083Z,64.90
2022-12-24T13:10:12.030Z,65.70
2022-12-24T13:13:32.782Z,64.61
2022-12-24T13:16:38.997Z,60.02
2022-12-24T13:19:18.363Z,54.18
2022-12-24T13:22:34.658Z,52.24
2022-12-24T13:25:01.299Z,50.51
2022-12-24T13:27:35.329Z,51.33
2022-12-24T13:30:39.779Z,54.97
2022-12-24T13:33:11.273Z,56.90
2022-12-24T13:35:57.358Z,58.45
2022-12-24T13:38:27.904Z,59.93
2022-12-24T13:40:56.184Z,60.58
2022-12-24T13:43:22.736Z,61.27
2022-12-24T13:45:51.080Z,60.82
2022-12-24T13:48:33.701Z,59.39
2022-12-24T13:51:23.546Z,59.20
2022-12-24T13:53:58.898Z,61.56
2022-12-24T13:56:27.041Z,63.14
2022-12-24T13:59:11.860Z,62.52
2022-12-24T14:01:42.451Z,61.90
2022-12-24T14:04:21.489Z,62.25
2022-12-24T14:06:52.300Z,63.35
2022-12-24T14:09:24.988Z,63.84
2022-12-24T14:12:05.743Z,63.98
2022-12-24T14:14:41.872Z,64.59
2022-12-24T14:17:22.051Z,64.27
2022-12-24T14:19:52.429Z,65.31
2022-12-24T14:22:44.091Z,68.57
2022-12-24T14:25:17.640Z,68.74
2022-12-24T14:27:51.392Z,68.55
2022-12-24T14:30:27.019Z,68.53
2022-12-24T14:32:54.546Z,67.13
2022-12-24T14:35:39.958Z,68.18
2022-12-24T14:38:12.618Z,68.72
2022-12-24T14:40:56.012Z,68.87
2022-12-24T14:44:01.403Z,69.85
2022-12-24T14:46:39.433Z,70.07
2022-12-24T14:49:30.945Z,69.08
2022-12-24T14:52:37.800Z,69.88
2022-12-24T14:54:59.872Z,70.39
2022-12-24T14:57:27.385Z,71.41
2022-12-24T14:59:56.422Z,72.05
2022-12-24T15:02:48.403Z,72.02
2022-12-24T15:05:28.780Z,72.70
2022-12-24T15:08:00.127Z,72.42
2022-12-24T15:10:38.284Z,71.52
2022-12-24T15:13:09.363Z,73.04
2022-12-24T15:15:36.590Z,73.16
2022-12-24T15:18:04.727Z,73.81
2022-12-24T15:20:31.688Z,73.80
2022-12-24T15:22:58.938Z,72.18
2022-12-24T15:25:29.767Z,72.73
2022-12-24T15:27:57.075Z,73.09
2022-12-24T15:30:27.604Z,73.13
2022-12-24T15:32:56.548Z,72.03
2022-12-24T15:35:31.374Z,72.60
2022-12-24T15:37:59.122Z,71.75
2022-12-24T15:40:26.478Z,72.32
2022-12-24T15:42:53.523Z,72.62
2022-12-24T15:45:29.179Z,72.59
2022-12-24T15:47:59.168Z,73.29
2022-12-24T15:50:32.657Z,73.46
2022-12-24T15:53:20.944Z,73.97
2022-12-24T15:56:12.544Z,73.99
2022-12-24T15:58:41.816Z,74.54
2022-12-24T16:01:08.375Z,74.03
2022-12-24T16:03:39.996Z,73.86
2022-12-24T16:06:08.288Z,74.06
2022-12-24T16:08:38.343Z,73.38
2022-12-24T16:11:21.942Z,73.89
2022-12-24T16:13:51.427Z,74.14
2022-12-24T16:16:21.510Z,72.62
2022-12-24T16:18:55.958Z,72.20
2022-12-24T16:21:38.962Z,71.62
2022-12-24T16:24:06.251Z,70.57
2022-12-24T16:26:35.891Z,71.59
2022-12-24T16:29:02.494Z,71.09
2022-12-24T16:31:33.070Z,71.06
2022-12-24T16:34:01.355Z,72.30
2022-12-24T16:36:29.131Z,71.83
2022-12-24T16:39:15.962Z,71.65
2022-12-24T16:42:01.106Z,71.38
2022-12-24T16:44:29.184Z,73.01
2022-12-24T16:46:56.550Z,73.08
2022-12-24T16:49:23.595Z,73.48
2022-12-24T16:51:50.080Z,73.99
2022-12-24T16:54:16.569Z,73.86
2022-12-24T16:56:43.896Z,74.60
2022-12-24T16:59:16.346Z,74.34
2022-12-24T17:01:43.051Z,74.89
2022-12-24T17:04:09.883Z,73.75
2022-12-24T17:06:36.873Z,74.17
2022-12-24T17:09:03.671Z,74.21
2022-12-24T17:11:30.327Z,73.60
2022-12-24T17:13:57.043Z,74.81
2022-12-24T17:16:23.784Z,74.20
2022-12-24T17:18:52.053Z,74.70
2022-12-24T17:21:19.032Z,75.30
2022-12-24T17:23:45.909Z,75.08
2022-12-24T17:26:15.257Z,75.31
2022-12-24T17:28:42.779Z,74.96
2022-12-24T17:31:10.500Z,75.86
2022-12-24T17:33:36.993Z,75.15
2022-12-24T17:36:04.096Z,74.30
2022-12-24T17:38:30.632Z,75.22
2022-12-24T17:41:01.991Z,75.71
2022-12-24T17:43:28.657Z,76.28
2022-12-24T17:45:55.427Z,75.97
2022-12-24T17:48:22.172Z,76.01
2022-12-24T17:50:48.749Z,74.87
2022-12-24T17:53:15.467Z,76.68
2022-12-24T17:55:43.134Z,76.58
2022-12-24T17:58:11.139Z,76.44
2022-12-24T18:00:38.920Z,75.88
2022-12-24T18:03:05.673Z,75.93
2022-12-24T18:05:35.823Z,76.92
2022-12-24T18:08:02.577Z,75.48
2022-12-24T18:10:30.104Z,74.97
2022-12-24T18:12:56.648Z,73.89
2022-12-24T18:15:23.298Z,73.94
2022-12-24T18:17:53.993Z,74.00
2022-12-24T18:20:22.487Z,74.31
2022-12-24T18:22:49.206Z,74.09
2022-12-24T18:25:15.975Z,73.49
2022-12-24T18:27:42.451Z,73.17
2022-12-24T18:30:09.949Z,73.24
2022-12-24T18:32:36.805Z,72.80
2022-12-24T18:35:04.125Z,72.83
2022-12-24T18:37:30.664Z,73.52
2022-12-24T18:39:57.250Z,73.37
2022-12-24T18:42:23.870Z,72.26
2022-12-24T18:44:50.437Z,74.80
2022-12-24T18:47:16.956Z,74.31
2022-12-24T18:49:43.497Z,74.06
2022-12-24T18:52:11.671Z,73.78
2022-12-24T18:54:39.948Z,73.17
2022-12-24T18:57:07.294Z,74.08
2022-12-24T18:59:33.877Z,72.95
2022-12-24T19:02:00.445Z,72.08
2022-12-24T19:04:27.073Z,71.47
2022-12-24T19:06:53.788Z,70.67
2022-12-24T19:09:21.007Z,70.59
2022-12-24T19:11:47.570Z,70.15
2022-12-24T19:14:14.252Z,69.87
2022-12-24T19:16:41.018Z,69.38
2022-12-24T19:19:09.239Z,69.44
2022-12-24T19:21:36.063Z,69.90
2022-12-24T19:24:02.700Z,69.38
2022-12-24T19:26:29.187Z,69.82
2022-12-24T19:28:55.773Z,69.66
2022-12-24T19:31:24.652Z,70.28
2022-12-24T19:33:54.616Z,69.53
2022-12-24T19:36:24.044Z,69.09
2022-12-24T19:38:50.658Z,68.55
2022-12-24T19:41:19.778Z,68.02
2022-12-24T19:43:49.002Z,68.83
2022-12-24T19:46:18.195Z,68.11
2022-12-24T19:48:50.196Z,68.50
2022-12-24T19:51:17.496Z,68.25
2022-12-24T19:53:44.534Z,67.96
2022-12-24T19:56:15.335Z,67.68
2022-12-24T19:58:42.333Z,68.60
2022-12-24T20:01:15.539Z,68.22
2022-12-24T20:03:43.856Z,68.31
2022-12-24T20:06:10.351Z,68.58
2022-12-24T20:08:38.368Z,69.08
2022-12-24T20:11:07.561Z,68.52
2022-12-24T20:13:34.915Z,69.42
2022-12-24T20:16:10.421Z,69.18
2022-12-24T20:19:03.441Z,68.93
2022-12-24T20:21:30.486Z,69.39
2022-12-24T20:23:56.958Z,69.18
2022-12-24T20:26:25.797Z,69.18
2022-12-24T20:28:53.070Z,68.75
2022-12-24T20:31:25.506Z,69.14
2022-12-24T20:33:52.718Z,69.42
2022-12-24T20:36:21.245Z,69.11
2022-12-24T20:38:54.432Z,69.17
2022-12-24T20:41:24.711Z,68.93
2022-12-24T20:43:51.659Z,68.75
2022-12-24T20:46:21.218Z,69.15
2022-12-24T20:48:53.047Z,68.92
2022-12-24T20:51:25.482Z,70.08
2022-12-24T20:53:57.693Z,72.29
2022-12-24T20:56:25.287Z,73.56
2022-12-24T20:58:52.380Z,73.15
2022-12-24T21:01:24.261Z,72.80
2022-12-24T21:03:51.331Z,72.86
2022-12-24T21:06:19.286Z,72.91
2022-12-24T21:08:48.466Z,73.25
2022-12-24T21:11:33.506Z,74.87
2022-12-24T21:14:02.038Z,74.92
2022-12-24T21:16:30.366Z,75.02
2022-12-24T21:18:56.898Z,74.42
2022-12-24T21:21:23.441Z,74.20
2022-12-24T21:23:49.892Z,74.91
2022-12-24T21:26:16.338Z,73.84
2022-12-24T21:28:45.281Z,73.46
2022-12-24T21:31:13.727Z,73.00
2022-12-24T21:33:40.436Z,72.90
2022-12-24T21:36:07.493Z,74.00
2022-12-24T21:38:35.104Z,74.39
2022-12-24T21:41:10.785Z,74.19
2022-12-24T21:43:49.999Z,73.73
2022-12-24T21:46:21.708Z,73.47
2022-12-24T21:49:09.701Z,73.94
2022-12-24T21:51:36.841Z,73.87
2022-12-24T21:54:22.059Z,73.21
2022-12-24T21:57:07.237Z,72.82
2022-12-24T21:59:38.298Z,73.14
2022-12-24T22:02:04.977Z,72.78
2022-12-24T22:04:32.803Z,72.36
2022-12-24T22:07:17.871Z,72.57
2022-12-24T22:10:03.020Z,73.00
2022-12-24T22:12:31.706Z,72.86
2022-12-24T22:14:58.824Z,73.29
2022-12-24T22:17:27.038Z,73.90
2022-12-24T22:19:54.671Z,73.25
2022-12-24T22:22:22.138Z,73.55
2022-12-24T22:24:48.582Z,73.11
2022-12-24T22:27:15.105Z,73.10
2022-12-24T22:29:41.612Z,72.62
2022-12-24T22:32:11.075Z,72.19
2022-12-24T22:34:37.656Z,72.54
2022-12-24T22:37:04.171Z,72.28
2022-12-24T22:39:30.702Z,71.57
2022-12-24T22:41:57.972Z,71.68
2022-12-24T22:44:24.789Z,72.54
2022-12-24T22:46:51.230Z,71.47
2022-12-24T22:49:17.719Z,71.80
2022-12-24T22:51:44.223Z,71.57
2022-12-24T22:54:10.705Z,72.23
2022-12-24T22:56:41.304Z,72.42
2022-12-24T22:59:12.168Z,72.88
